sensor_id;sensor_type;location;lat;lon;timestamp;pressure;altitude;pressure_sealevel;temperature;humidity
55113;BME280;41006;50.920;3.456;2023-10-09T00:00:26;76427.78;;;-147.36;85.91
55113;BME280;41006;50.920;3.456;2023-10-09T00:01:06;76419.69;;;-147.36;85.84
55113;BME280;41006;50.920;3.456;2023-10-09T00:01:40;76411.59;;;-147.36;85.48
55113;BME280;41006;50.920;3.456;2023-10-09T00:02:14;76411.59;;;-147.36;85.25
55113;BME280;41006;50.920;3.456;2023-10-09T00:02:44;76411.59;;;-147.36;85.24
55113;BME280;41006;50.920;3.456;2023-10-09T00:03:14;76411.59;;;-147.36;85.19
55113;BME280;41006;50.920;3.456;2023-10-09T00:03:45;76415.66;;;-147.36;85.00
55113;BME280;41006;50.920;3.456;2023-10-09T00:04:18;76427.78;;;-147.36;85.37
55113;BME280;41006;50.920;3.456;2023-10-09T00:04:51;76427.78;;;-147.36;85.35
55113;BME280;41006;50.920;3.456;2023-10-09T00:05:27;76437.88;;;-147.36;85.28
55113;BME280;41006;50.920;3.456;2023-10-09T00:06:15;76419.69;;;-147.36;85.33
55113;BME280;41006;50.920;3.456;2023-10-09T00:06:46;76415.66;;;-147.36;84.78
55113;BME280;41006;50.920;3.456;2023-10-09T00:07:17;76407.56;;;-147.36;84.53
55113;BME280;41006;50.920;3.456;2023-10-09T00:07:52;76403.53;;;-147.36;84.54
55113;BME280;41006;50.920;3.456;2023-10-09T00:08:26;76411.59;;;-147.36;84.26
55113;BME280;41006;50.920;3.456;2023-10-09T00:09:08;76419.69;;;-147.36;84.48
55113;BME280;41006;50.920;3.456;2023-10-09T00:10:00;76411.59;;;-147.36;84.36
55113;BME280;41006;50.920;3.456;2023-10-09T00:10:44;76403.53;;;-147.36;84.01
55113;BME280;41006;50.920;3.456;2023-10-09T00:11:26;76411.59;;;-147.36;83.68
55113;BME280;41006;50.920;3.456;2023-10-09T00:12:00;76413.63;;;-147.36;83.93
55113;BME280;41006;50.920;3.456;2023-10-09T00:12:30;76411.59;;;-147.36;83.67
55113;BME280;41006;50.920;3.456;2023-10-09T00:13:08;76413.63;;;-147.36;83.87
55113;BME280;41006;50.920;3.456;2023-10-09T00:13:42;76407.56;;;-147.36;83.84
55113;BME280;41006;50.920;3.456;2023-10-09T00:14:21;76415.66;;;-147.36;83.51
55113;BME280;41006;50.920;3.456;2023-10-09T00:14:51;76407.56;;;-147.36;83.36
55113;BME280;41006;50.920;3.456;2023-10-09T00:15:27;76399.50;;;-147.36;83.03
55113;BME280;41006;50.920;3.456;2023-10-09T00:16:04;76407.56;;;-147.36;83.04
55113;BME280;41006;50.920;3.456;2023-10-09T00:16:38;76405.56;;;-147.36;82.92
55113;BME280;41006;50.920;3.456;2023-10-09T00:17:26;76411.59;;;-147.36;83.16
55113;BME280;41006;50.920;3.456;2023-10-09T00:18:03;76407.56;;;-147.36;82.97
55113;BME280;41006;50.920;3.456;2023-10-09T00:18:35;76413.63;;;-147.36;83.28
55113;BME280;41006;50.920;3.456;2023-10-09T00:19:05;76409.59;;;-147.36;82.97
55113;BME280;41006;50.920;3.456;2023-10-09T00:19:45;76399.50;;;-147.36;82.96
55113;BME280;41006;50.920;3.456;2023-10-09T00:20:22;76403.53;;;-147.36;82.84
55113;BME280;41006;50.920;3.456;2023-10-09T00:21:07;76385.34;;;-147.36;82.73
55113;BME280;41006;50.920;3.456;2023-10-09T00:21:49;76389.38;;;-147.36;82.58
55113;BME280;41006;50.920;3.456;2023-10-09T00:22:20;76387.38;;;-147.36;82.59
55113;BME280;41006;50.920;3.456;2023-10-09T00:23:08;76377.25;;;-147.36;82.18
55113;BME280;41006;50.920;3.456;2023-10-09T00:23:42;76391.41;;;-147.36;82.01
55113;BME280;41006;50.920;3.456;2023-10-09T00:24:13;76403.53;;;-147.36;82.57
55113;BME280;41006;50.920;3.456;2023-10-09T00:24:43;76399.50;;;-147.36;82.73
55113;BME280;41006;50.920;3.456;2023-10-09T00:25:19;76395.44;;;-147.36;82.49
55113;BME280;41006;50.920;3.456;2023-10-09T00:25:54;76407.56;;;-147.36;82.62
55113;BME280;41006;50.920;3.456;2023-10-09T00:26:59;76395.44;;;-147.36;82.77
55113;BME280;41006;50.920;3.456;2023-10-09T00:27:51;76395.44;;;-147.36;82.54
55113;BME280;41006;50.920;3.456;2023-10-09T00:28:22;76399.50;;;-147.36;82.42
55113;BME280;41006;50.920;3.456;2023-10-09T00:28:55;76409.59;;;-147.36;82.60
55113;BME280;41006;50.920;3.456;2023-10-09T00:29:26;76407.56;;;-147.36;82.59
55113;BME280;41006;50.920;3.456;2023-10-09T00:30:03;76411.59;;;-147.36;82.65
55113;BME280;41006;50.920;3.456;2023-10-09T00:30:40;76415.66;;;-147.36;82.88
55113;BME280;41006;50.920;3.456;2023-10-09T00:31:13;76409.59;;;-147.36;82.79
55113;BME280;41006;50.920;3.456;2023-10-09T00:31:58;76413.63;;;-147.36;83.21
55113;BME280;41006;50.920;3.456;2023-10-09T00:32:52;76401.50;;;-147.36;83.03
55113;BME280;41006;50.920;3.456;2023-10-09T00:33:30;76395.44;;;-147.36;82.49
55113;BME280;41006;50.920;3.456;2023-10-09T00:34:02;76387.38;;;-147.36;82.30
55113;BME280;41006;50.920;3.456;2023-10-09T00:34:37;76385.34;;;-147.36;82.49
55113;BME280;41006;50.920;3.456;2023-10-09T00:35:09;76387.38;;;-147.36;82.38
55113;BME280;41006;50.920;3.456;2023-10-09T00:36:03;76387.38;;;-147.36;82.25
55113;BME280;41006;50.920;3.456;2023-10-09T00:36:40;76387.38;;;-147.36;82.40
55113;BME280;41006;50.920;3.456;2023-10-09T00:37:20;76385.34;;;-147.36;82.13
55113;BME280;41006;50.920;3.456;2023-10-09T00:37:57;76383.31;;;-147.36;82.25
55113;BME280;41006;50.920;3.456;2023-10-09T00:38:36;76385.34;;;-147.36;82.34
55113;BME280;41006;50.920;3.456;2023-10-09T00:39:09;76381.31;;;-147.36;82.28
55113;BME280;41006;50.920;3.456;2023-10-09T00:39:48;76381.31;;;-147.36;82.18
55113;BME280;41006;50.920;3.456;2023-10-09T00:40:30;76377.25;;;-147.36;82.03
55113;BME280;41006;50.920;3.456;2023-10-09T00:41:00;76375.25;;;-147.36;81.88
55113;BME280;41006;50.920;3.456;2023-10-09T00:41:39;76371.19;;;-147.36;81.85
55113;BME280;41006;50.920;3.456;2023-10-09T00:42:12;76375.25;;;-147.36;81.79
55113;BME280;41006;50.920;3.456;2023-10-09T00:42:55;76373.22;;;-147.36;81.77
55113;BME280;41006;50.920;3.456;2023-10-09T00:43:28;76375.25;;;-147.36;81.98
55113;BME280;41006;50.920;3.456;2023-10-09T00:44:01;76385.34;;;-147.36;81.74
55113;BME280;41006;50.920;3.456;2023-10-09T00:44:38;76381.31;;;-147.36;81.86
55113;BME280;41006;50.920;3.456;2023-10-09T00:45:10;76383.31;;;-147.36;82.02
55113;BME280;41006;50.920;3.456;2023-10-09T00:45:46;76389.38;;;-147.36;82.39
55113;BME280;41006;50.920;3.456;2023-10-09T00:46:17;76387.38;;;-147.36;82.54
55113;BME280;41006;50.920;3.456;2023-10-09T00:46:50;76385.34;;;-147.36;82.65
55113;BME280;41006;50.920;3.456;2023-10-09T00:47:24;76395.44;;;-147.36;82.23
55113;BME280;41006;50.920;3.456;2023-10-09T00:48:06;76403.53;;;-147.36;82.51
55113;BME280;41006;50.920;3.456;2023-10-09T00:48:36;76397.47;;;-147.36;82.49
55113;BME280;41006;50.920;3.456;2023-10-09T00:49:26;76397.47;;;-147.36;82.51
55113;BME280;41006;50.920;3.456;2023-10-09T00:49:58;76395.44;;;-147.36;82.25
55113;BME280;41006;50.920;3.456;2023-10-09T00:50:38;76379.28;;;-147.36;82.06
55113;BME280;41006;50.920;3.456;2023-10-09T00:51:16;76383.31;;;-147.36;82.04
55113;BME280;41006;50.920;3.456;2023-10-09T00:51:54;76379.28;;;-147.36;81.88
55113;BME280;41006;50.920;3.456;2023-10-09T00:52:26;76383.31;;;-147.36;81.93
55113;BME280;41006;50.920;3.456;2023-10-09T00:53:02;76389.38;;;-147.36;82.09
55113;BME280;41006;50.920;3.456;2023-10-09T00:53:37;76397.47;;;-147.36;82.12
55113;BME280;41006;50.920;3.456;2023-10-09T00:54:10;76395.44;;;-147.36;82.30
55113;BME280;41006;50.920;3.456;2023-10-09T00:54:44;76403.53;;;-147.36;82.26
55113;BME280;41006;50.920;3.456;2023-10-09T00:55:21;76407.56;;;-147.36;82.52
55113;BME280;41006;50.920;3.456;2023-10-09T00:56:06;76395.44;;;-147.36;82.35
55113;BME280;41006;50.920;3.456;2023-10-09T00:56:48;76403.53;;;-147.36;82.44
55113;BME280;41006;50.920;3.456;2023-10-09T00:57:28;76395.44;;;-147.36;82.16
55113;BME280;41006;50.920;3.456;2023-10-09T00:58:04;76387.38;;;-147.36;82.32
55113;BME280;41006;50.920;3.456;2023-10-09T00:58:54;76393.44;;;-147.36;82.13
55113;BME280;41006;50.920;3.456;2023-10-09T00:59:38;76399.50;;;-147.36;82.66
55113;BME280;41006;50.920;3.456;2023-10-09T01:00:10;76403.53;;;-147.36;82.67
55113;BME280;41006;50.920;3.456;2023-10-09T01:01:02;76403.53;;;-147.36;82.89
55113;BME280;41006;50.920;3.456;2023-10-09T01:01:37;76401.50;;;-147.36;83.15
55113;BME280;41006;50.920;3.456;2023-10-09T01:02:13;76403.53;;;-147.36;82.99
55113;BME280;41006;50.920;3.456;2023-10-09T01:02:51;76407.56;;;-147.36;83.51
55113;BME280;41006;50.920;3.456;2023-10-09T01:03:40;76413.63;;;-147.36;83.82
55113;BME280;41006;50.920;3.456;2023-10-09T01:04:10;76419.69;;;-147.36;83.84
55113;BME280;41006;50.920;3.456;2023-10-09T01:04:45;76427.78;;;-147.36;84.08
55113;BME280;41006;50.920;3.456;2023-10-09T01:05:15;76435.84;;;-147.36;84.59
55113;BME280;41006;50.920;3.456;2023-10-09T01:05:57;76431.81;;;-147.36;84.61
55113;BME280;41006;50.920;3.456;2023-10-09T01:06:47;76439.91;;;-147.36;84.82
55113;BME280;41006;50.920;3.456;2023-10-09T01:07:23;76427.78;;;-147.36;84.67
55113;BME280;41006;50.920;3.456;2023-10-09T01:07:55;76435.84;;;-147.36;84.79
55113;BME280;41006;50.920;3.456;2023-10-09T01:08:28;76433.84;;;-147.36;84.82
55113;BME280;41006;50.920;3.456;2023-10-09T01:09:14;76435.84;;;-147.36;84.77
55113;BME280;41006;50.920;3.456;2023-10-09T01:09:44;76441.91;;;-147.36;85.14
55113;BME280;41006;50.920;3.456;2023-10-09T01:10:21;76443.94;;;-147.36;85.26
55113;BME280;41006;50.920;3.456;2023-10-09T01:10:52;76441.91;;;-147.36;85.12
55113;BME280;41006;50.920;3.456;2023-10-09T01:11:39;76439.91;;;-147.36;85.34
55113;BME280;41006;50.920;3.456;2023-10-09T01:12:33;76427.78;;;-147.36;85.21
55113;BME280;41006;50.920;3.456;2023-10-09T01:13:12;76425.75;;;-147.36;84.98
55113;BME280;41006;50.920;3.456;2023-10-09T01:13:42;76419.69;;;-147.36;84.84
55113;BME280;41006;50.920;3.456;2023-10-09T01:14:18;76427.78;;;-147.36;84.73
55113;BME280;41006;50.920;3.456;2023-10-09T01:14:52;76427.78;;;-147.36;84.95
55113;BME280;41006;50.920;3.456;2023-10-09T01:15:25;76429.78;;;-147.36;85.00
55113;BME280;41006;50.920;3.456;2023-10-09T01:16:17;76439.91;;;-147.36;85.27
55113;BME280;41006;50.920;3.456;2023-10-09T01:16:48;76423.72;;;-147.36;85.35
55113;BME280;41006;50.920;3.456;2023-10-09T01:17:21;76433.84;;;-147.36;85.39
55113;BME280;41006;50.920;3.456;2023-10-09T01:18:05;76441.91;;;-147.36;85.87
55113;BME280;41006;50.920;3.456;2023-10-09T01:18:38;76447.97;;;-147.36;86.12
55113;BME280;41006;50.920;3.456;2023-10-09T01:19:11;76447.97;;;-147.36;86.29
55113;BME280;41006;50.920;3.456;2023-10-09T01:19:56;76450.00;;;-147.36;86.34
55113;BME280;41006;50.920;3.456;2023-10-09T01:20:28;76447.97;;;-147.36;86.39
55113;BME280;41006;50.920;3.456;2023-10-09T01:21:04;76456.06;;;-147.36;86.36
55113;BME280;41006;50.920;3.456;2023-10-09T01:21:37;76452.03;;;-147.36;86.51
55113;BME280;41006;50.920;3.456;2023-10-09T01:22:12;76460.09;;;-147.36;86.63
55113;BME280;41006;50.920;3.456;2023-10-09T01:22:48;76462.13;;;-147.36;86.82
55113;BME280;41006;50.920;3.456;2023-10-09T01:23:23;76464.16;;;-147.36;86.93
55113;BME280;41006;50.920;3.456;2023-10-09T01:23:53;76462.13;;;-147.36;87.29
55113;BME280;41006;50.920;3.456;2023-10-09T01:24:39;76452.03;;;-147.36;87.13
55113;BME280;41006;50.920;3.456;2023-10-09T01:25:09;76447.97;;;-147.36;86.90
55113;BME280;41006;50.920;3.456;2023-10-09T01:25:40;76452.03;;;-147.36;86.74
55113;BME280;41006;50.920;3.456;2023-10-09T01:26:19;76462.13;;;-147.36;87.01
55113;BME280;41006;50.920;3.456;2023-10-09T01:26:53;76454.03;;;-147.36;87.28
55113;BME280;41006;50.920;3.456;2023-10-09T01:27:27;76452.03;;;-147.36;87.15
55113;BME280;41006;50.920;3.456;2023-10-09T01:28:02;76466.16;;;-147.36;87.60
55113;BME280;41006;50.920;3.456;2023-10-09T01:28:34;76472.22;;;-147.36;87.73
55113;BME280;41006;50.920;3.456;2023-10-09T01:29:08;76472.22;;;-147.36;88.13
55113;BME280;41006;50.920;3.456;2023-10-09T01:29:44;76460.09;;;-147.36;87.99
55113;BME280;41006;50.920;3.456;2023-10-09T01:30:16;76460.09;;;-147.36;88.03
55113;BME280;41006;50.920;3.456;2023-10-09T01:30:46;76450.00;;;-147.36;87.87
55113;BME280;41006;50.920;3.456;2023-10-09T01:31:17;76452.03;;;-147.36;87.62
55113;BME280;41006;50.920;3.456;2023-10-09T01:31:51;76447.97;;;-147.36;87.59
55113;BME280;41006;50.920;3.456;2023-10-09T01:32:24;76443.94;;;-147.36;87.36
55113;BME280;41006;50.920;3.456;2023-10-09T01:32:59;76439.91;;;-147.36;87.24
55113;BME280;41006;50.920;3.456;2023-10-09T01:33:44;76441.91;;;-147.36;87.21
55113;BME280;41006;50.920;3.456;2023-10-09T01:34:15;76437.88;;;-147.36;87.25
55113;BME280;41006;50.920;3.456;2023-10-09T01:34:45;76435.84;;;-147.36;87.15
55113;BME280;41006;50.920;3.456;2023-10-09T01:35:19;76435.84;;;-147.36;87.02
55113;BME280;41006;50.920;3.456;2023-10-09T01:35:52;76435.84;;;-147.36;86.73
55113;BME280;41006;50.920;3.456;2023-10-09T01:36:29;76431.81;;;-147.36;86.84
55113;BME280;41006;50.920;3.456;2023-10-09T01:37:01;76447.97;;;-147.36;86.89
55113;BME280;41006;50.920;3.456;2023-10-09T01:37:35;76439.91;;;-147.36;86.87
55113;BME280;41006;50.920;3.456;2023-10-09T01:38:07;76435.84;;;-147.36;86.80
55113;BME280;41006;50.920;3.456;2023-10-09T01:38:45;76439.91;;;-147.36;86.72
55113;BME280;41006;50.920;3.456;2023-10-09T01:39:20;76445.97;;;-147.36;86.96
55113;BME280;41006;50.920;3.456;2023-10-09T01:39:56;76437.88;;;-147.36;87.11
55113;BME280;41006;50.920;3.456;2023-10-09T01:40:48;76450.00;;;-147.36;87.36
55113;BME280;41006;50.920;3.456;2023-10-09T01:41:24;76460.09;;;-147.36;87.77
55113;BME280;41006;50.920;3.456;2023-10-09T01:41:59;76452.03;;;-147.36;87.64
55113;BME280;41006;50.920;3.456;2023-10-09T01:42:32;76452.03;;;-147.36;87.64
55113;BME280;41006;50.920;3.456;2023-10-09T01:43:17;76450.00;;;-147.36;87.79
55113;BME280;41006;50.920;3.456;2023-10-09T01:43:51;76447.97;;;-147.36;87.53
55113;BME280;41006;50.920;3.456;2023-10-09T01:44:33;76443.94;;;-147.36;87.29
55113;BME280;41006;50.920;3.456;2023-10-09T01:45:08;76433.84;;;-147.36;87.21
55113;BME280;41006;50.920;3.456;2023-10-09T01:45:42;76441.91;;;-147.36;87.25
55113;BME280;41006;50.920;3.456;2023-10-09T01:46:18;76439.91;;;-147.36;87.38
55113;BME280;41006;50.920;3.456;2023-10-09T01:46:52;76443.94;;;-147.36;87.50
55113;BME280;41006;50.920;3.456;2023-10-09T01:47:29;76443.94;;;-147.36;87.69
55113;BME280;41006;50.920;3.456;2023-10-09T01:48:02;76460.09;;;-147.36;88.05
55113;BME280;41006;50.920;3.456;2023-10-09T01:48:38;76456.06;;;-147.36;88.22
55113;BME280;41006;50.920;3.456;2023-10-09T01:49:10;76452.03;;;-147.36;88.02
55113;BME280;41006;50.920;3.456;2023-10-09T01:49:47;76474.25;;;-147.36;88.72
55113;BME280;41006;50.920;3.456;2023-10-09T01:50:22;76476.25;;;-147.36;88.86
55113;BME280;41006;50.920;3.456;2023-10-09T01:51:03;76476.25;;;-147.36;88.89
55113;BME280;41006;50.920;3.456;2023-10-09T01:51:35;76476.25;;;-147.36;89.41
55113;BME280;41006;50.920;3.456;2023-10-09T01:52:10;76476.25;;;-147.36;89.25
55113;BME280;41006;50.920;3.456;2023-10-09T01:52:46;76472.22;;;-147.36;88.99
55113;BME280;41006;50.920;3.456;2023-10-09T01:53:21;76466.16;;;-147.36;88.92
55113;BME280;41006;50.920;3.456;2023-10-09T01:53:59;76466.16;;;-147.36;88.66
55113;BME280;41006;50.920;3.456;2023-10-09T01:54:32;76468.19;;;-147.36;88.55
55113;BME280;41006;50.920;3.456;2023-10-09T01:55:09;76468.19;;;-147.36;88.74
55113;BME280;41006;50.920;3.456;2023-10-09T01:55:44;76460.09;;;-147.36;88.50
55113;BME280;41006;50.920;3.456;2023-10-09T01:56:15;76456.06;;;-147.36;88.28
55113;BME280;41006;50.920;3.456;2023-10-09T01:56:48;76454.03;;;-147.36;88.15
55113;BME280;41006;50.920;3.456;2023-10-09T01:57:19;76456.06;;;-147.36;88.19
55113;BME280;41006;50.920;3.456;2023-10-09T01:57:53;76466.16;;;-147.36;88.51
55113;BME280;41006;50.920;3.456;2023-10-09T01:58:23;76460.09;;;-147.36;88.92
55113;BME280;41006;50.920;3.456;2023-10-09T01:58:55;76456.06;;;-147.36;88.63
55113;BME280;41006;50.920;3.456;2023-10-09T01:59:36;76456.06;;;-147.36;88.37
55113;BME280;41006;50.920;3.456;2023-10-09T02:00:13;76445.97;;;-147.36;88.18
55113;BME280;41006;50.920;3.456;2023-10-09T02:00:49;76452.03;;;-147.36;87.85
55113;BME280;41006;50.920;3.456;2023-10-09T02:01:27;76447.97;;;-147.36;88.01
55113;BME280;41006;50.920;3.456;2023-10-09T02:02:02;76454.03;;;-147.36;88.30
55113;BME280;41006;50.920;3.456;2023-10-09T02:02:44;76458.09;;;-147.36;88.53
55113;BME280;41006;50.920;3.456;2023-10-09T02:03:16;76460.09;;;-147.36;88.45
55113;BME280;41006;50.920;3.456;2023-10-09T02:03:47;76462.13;;;-147.36;88.61
55113;BME280;41006;50.920;3.456;2023-10-09T02:04:21;76456.06;;;-147.36;88.36
55113;BME280;41006;50.920;3.456;2023-10-09T02:04:53;76447.97;;;-147.36;88.25
55113;BME280;41006;50.920;3.456;2023-10-09T02:05:35;76452.03;;;-147.36;88.12
55113;BME280;41006;50.920;3.456;2023-10-09T02:06:10;76447.97;;;-147.36;87.88
55113;BME280;41006;50.920;3.456;2023-10-09T02:06:58;76443.94;;;-147.36;87.80
55113;BME280;41006;50.920;3.456;2023-10-09T02:07:37;76454.03;;;-147.36;87.91
55113;BME280;41006;50.920;3.456;2023-10-09T02:08:12;76450.00;;;-147.36;87.88
55113;BME280;41006;50.920;3.456;2023-10-09T02:08:45;76450.00;;;-147.36;87.71
55113;BME280;41006;50.920;3.456;2023-10-09T02:09:21;76445.97;;;-147.36;87.68
55113;BME280;41006;50.920;3.456;2023-10-09T02:10:00;76447.97;;;-147.36;87.63
55113;BME280;41006;50.920;3.456;2023-10-09T02:10:33;76454.03;;;-147.36;87.66
55113;BME280;41006;50.920;3.456;2023-10-09T02:11:03;76452.03;;;-147.36;87.59
55113;BME280;41006;50.920;3.456;2023-10-09T02:11:37;76452.03;;;-147.36;87.63
55113;BME280;41006;50.920;3.456;2023-10-09T02:12:11;76464.16;;;-147.36;87.83
55113;BME280;41006;50.920;3.456;2023-10-09T02:12:42;76470.19;;;-147.36;88.14
55113;BME280;41006;50.920;3.456;2023-10-09T02:13:12;76462.13;;;-147.36;87.92
55113;BME280;41006;50.920;3.456;2023-10-09T02:13:47;76468.19;;;-147.36;87.98
55113;BME280;41006;50.920;3.456;2023-10-09T02:14:23;76476.25;;;-147.36;88.21
55113;BME280;41006;50.920;3.456;2023-10-09T02:14:56;76482.31;;;-147.36;88.53
55113;BME280;41006;50.920;3.456;2023-10-09T02:15:27;76484.34;;;-147.36;88.41
55113;BME280;41006;50.920;3.456;2023-10-09T02:16:15;76480.31;;;-147.36;88.31
55113;BME280;41006;50.920;3.456;2023-10-09T02:16:47;76480.31;;;-147.36;88.63
55113;BME280;41006;50.920;3.456;2023-10-09T02:17:32;76482.31;;;-147.36;88.74
55113;BME280;41006;50.920;3.456;2023-10-09T02:18:04;76480.31;;;-147.36;88.60
55113;BME280;41006;50.920;3.456;2023-10-09T02:18:46;76480.31;;;-147.36;88.40
55113;BME280;41006;50.920;3.456;2023-10-09T02:19:22;76474.25;;;-147.36;88.40
55113;BME280;41006;50.920;3.456;2023-10-09T02:20:01;76460.09;;;-147.36;88.42
55113;BME280;41006;50.920;3.456;2023-10-09T02:20:49;76472.22;;;-147.36;88.10
55113;BME280;41006;50.920;3.456;2023-10-09T02:21:30;76472.22;;;-147.36;88.17
55113;BME280;41006;50.920;3.456;2023-10-09T02:22:04;76472.22;;;-147.36;87.96
55113;BME280;41006;50.920;3.456;2023-10-09T02:22:45;76476.25;;;-147.36;88.28
55113;BME280;41006;50.920;3.456;2023-10-09T02:23:18;76472.22;;;-147.36;88.25
55113;BME280;41006;50.920;3.456;2023-10-09T02:23:55;76468.19;;;-147.36;88.46
55113;BME280;41006;50.920;3.456;2023-10-09T02:24:27;76468.19;;;-147.36;88.01
55113;BME280;41006;50.920;3.456;2023-10-09T02:25:17;76472.22;;;-147.36;88.00
55113;BME280;41006;50.920;3.456;2023-10-09T02:25:57;76468.19;;;-147.36;88.06
55113;BME280;41006;50.920;3.456;2023-10-09T02:26:30;76462.13;;;-147.36;87.99
55113;BME280;41006;50.920;3.456;2023-10-09T02:27:09;76466.16;;;-147.36;87.98
55113;BME280;41006;50.920;3.456;2023-10-09T02:27:43;76468.19;;;-147.36;88.32
55113;BME280;41006;50.920;3.456;2023-10-09T02:28:26;76466.16;;;-147.36;88.12
55113;BME280;41006;50.920;3.456;2023-10-09T02:29:05;76464.16;;;-147.36;88.03
55113;BME280;41006;50.920;3.456;2023-10-09T02:29:38;76464.16;;;-147.36;88.07
55113;BME280;41006;50.920;3.456;2023-10-09T02:30:12;76460.09;;;-147.36;88.11
55113;BME280;41006;50.920;3.456;2023-10-09T02:30:45;76454.03;;;-147.36;87.75
55113;BME280;41006;50.920;3.456;2023-10-09T02:31:21;76456.06;;;-147.36;87.88
55113;BME280;41006;50.920;3.456;2023-10-09T02:31:55;76458.09;;;-147.36;87.84
55113;BME280;41006;50.920;3.456;2023-10-09T02:32:31;76454.03;;;-147.36;87.72
55113;BME280;41006;50.920;3.456;2023-10-09T02:33:03;76460.09;;;-147.36;87.79
55113;BME280;41006;50.920;3.456;2023-10-09T02:33:37;76460.09;;;-147.36;88.00
55113;BME280;41006;50.920;3.456;2023-10-09T02:34:09;76470.19;;;-147.36;88.23
55113;BME280;41006;50.920;3.456;2023-10-09T02:34:43;76480.31;;;-147.36;88.73
55113;BME280;41006;50.920;3.456;2023-10-09T02:35:16;76476.25;;;-147.36;88.71
55113;BME280;41006;50.920;3.456;2023-10-09T02:35:58;76478.28;;;-147.36;88.91
55113;BME280;41006;50.920;3.456;2023-10-09T02:36:35;76472.22;;;-147.36;88.71
55113;BME280;41006;50.920;3.456;2023-10-09T02:37:08;76460.09;;;-147.36;88.40
55113;BME280;41006;50.920;3.456;2023-10-09T02:37:42;76456.06;;;-147.36;88.18
55113;BME280;41006;50.920;3.456;2023-10-09T02:38:15;76460.09;;;-147.36;88.14
55113;BME280;41006;50.920;3.456;2023-10-09T02:38:47;76452.03;;;-147.36;88.19
55113;BME280;41006;50.920;3.456;2023-10-09T02:39:18;76447.97;;;-147.36;87.68
55113;BME280;41006;50.920;3.456;2023-10-09T02:40:01;76450.00;;;-147.36;87.60
55113;BME280;41006;50.920;3.456;2023-10-09T02:40:38;76452.03;;;-147.36;87.55
55113;BME280;41006;50.920;3.456;2023-10-09T02:41:37;76441.91;;;-147.36;87.04
55113;BME280;41006;50.920;3.456;2023-10-09T02:42:14;76454.03;;;-147.36;87.49
55113;BME280;41006;50.920;3.456;2023-10-09T02:42:47;76460.09;;;-147.36;87.74
55113;BME280;41006;50.920;3.456;2023-10-09T02:43:20;76462.13;;;-147.36;88.18
55113;BME280;41006;50.920;3.456;2023-10-09T02:43:54;76454.03;;;-147.36;88.28
55113;BME280;41006;50.920;3.456;2023-10-09T02:44:29;76456.06;;;-147.36;87.75
55113;BME280;41006;50.920;3.456;2023-10-09T02:45:09;76443.94;;;-147.36;87.54
55113;BME280;41006;50.920;3.456;2023-10-09T02:45:40;76460.09;;;-147.36;87.61
55113;BME280;41006;50.920;3.456;2023-10-09T02:46:22;76460.09;;;-147.36;87.79
55113;BME280;41006;50.920;3.456;2023-10-09T02:47:03;76456.06;;;-147.36;87.84
55113;BME280;41006;50.920;3.456;2023-10-09T02:47:35;76468.19;;;-147.36;88.26
55113;BME280;41006;50.920;3.456;2023-10-09T02:48:11;76466.16;;;-147.36;88.28
55113;BME280;41006;50.920;3.456;2023-10-09T02:48:44;76466.16;;;-147.36;88.30
55113;BME280;41006;50.920;3.456;2023-10-09T02:49:22;76464.16;;;-147.36;88.40
55113;BME280;41006;50.920;3.456;2023-10-09T02:49:53;76460.09;;;-147.36;88.21
55113;BME280;41006;50.920;3.456;2023-10-09T02:50:30;76462.13;;;-147.36;87.85
55113;BME280;41006;50.920;3.456;2023-10-09T02:51:04;76472.22;;;-147.36;88.38
55113;BME280;41006;50.920;3.456;2023-10-09T02:51:35;76470.19;;;-147.36;88.36
55113;BME280;41006;50.920;3.456;2023-10-09T02:52:11;76464.16;;;-147.36;88.36
55113;BME280;41006;50.920;3.456;2023-10-09T02:52:43;76464.16;;;-147.36;88.38
55113;BME280;41006;50.920;3.456;2023-10-09T02:53:16;76460.09;;;-147.36;88.04
55113;BME280;41006;50.920;3.456;2023-10-09T02:54:29;76470.19;;;-147.36;88.47
55113;BME280;41006;50.920;3.456;2023-10-09T02:55:05;76476.25;;;-147.36;88.83
55113;BME280;41006;50.920;3.456;2023-10-09T02:55:43;76472.22;;;-147.36;88.67
55113;BME280;41006;50.920;3.456;2023-10-09T02:56:23;76474.25;;;-147.36;88.70
55113;BME280;41006;50.920;3.456;2023-10-09T02:56:54;76472.22;;;-147.36;88.70
55113;BME280;41006;50.920;3.456;2023-10-09T02:57:27;76468.19;;;-147.36;88.51
55113;BME280;41006;50.920;3.456;2023-10-09T02:58:06;76464.16;;;-147.36;88.45
55113;BME280;41006;50.920;3.456;2023-10-09T02:58:46;76468.19;;;-147.36;88.46
55113;BME280;41006;50.920;3.456;2023-10-09T02:59:18;76470.19;;;-147.36;88.45
55113;BME280;41006;50.920;3.456;2023-10-09T02:59:51;76462.13;;;-147.36;88.63
55113;BME280;41006;50.920;3.456;2023-10-09T03:00:24;76470.19;;;-147.36;88.47
55113;BME280;41006;50.920;3.456;2023-10-09T03:00:59;76472.22;;;-147.36;88.70
55113;BME280;41006;50.920;3.456;2023-10-09T03:01:30;76468.19;;;-147.36;88.72
55113;BME280;41006;50.920;3.456;2023-10-09T03:02:00;76476.25;;;-147.36;89.18
55113;BME280;41006;50.920;3.456;2023-10-09T03:02:33;76472.22;;;-147.36;89.02
55113;BME280;41006;50.920;3.456;2023-10-09T03:03:06;76472.22;;;-147.36;88.97
55113;BME280;41006;50.920;3.456;2023-10-09T03:03:39;76468.19;;;-147.36;89.09
55113;BME280;41006;50.920;3.456;2023-10-09T03:04:11;76464.16;;;-147.36;88.92
55113;BME280;41006;50.920;3.456;2023-10-09T03:04:44;76458.09;;;-147.36;88.69
55113;BME280;41006;50.920;3.456;2023-10-09T03:05:17;76460.09;;;-147.36;88.65
55113;BME280;41006;50.920;3.456;2023-10-09T03:05:50;76454.03;;;-147.36;88.35
55113;BME280;41006;50.920;3.456;2023-10-09T03:06:23;76462.13;;;-147.36;88.33
55113;BME280;41006;50.920;3.456;2023-10-09T03:07:00;76466.16;;;-147.36;88.70
55113;BME280;41006;50.920;3.456;2023-10-09T03:07:31;76460.09;;;-147.36;88.75
55113;BME280;41006;50.920;3.456;2023-10-09T03:08:01;76476.25;;;-147.36;88.85